Time;durP1;ratioP1;P1;durP2;ratioP2;P2;SDS_P1;SDS_P2;PMS_P1;PMS_P2;Temp;Humidity;BMP_temperature;BMP_pressure;BME280_temperature;BME280_humidity;BME280_pressure;Samples;Min_cycle;Max_cycle;Signal;HPM_P1;HPM_P2
2023/06/03 00:01:15;;;;;;;8.80;5.73;;;15.70;15.10;;;;;;5027526;28;20487;-63
2023/06/03 00:03:44;;;;;;;14.30;5.97;;;15.60;15.20;;;;;;5026203;28;20761;-62
2023/06/03 00:06:12;;;;;;;15.07;6.13;;;15.60;15.40;;;;;;5027583;28;20549;-62
2023/06/03 00:08:39;;;;;;;14.73;5.90;;;15.60;15.50;;;;;;5027646;28;20466;-62
2023/06/03 00:11:06;;;;;;;10.87;6.13;;;15.50;15.60;;;;;;5027387;28;20475;-62
2023/06/03 00:13:33;;;;;;;11.97;5.40;;;15.50;15.60;;;;;;5027715;28;20473;-63
2023/06/03 00:15:59;;;;;;;11.03;6.13;;;15.50;15.60;;;;;;5026343;28;21018;-62
2023/06/03 00:18:27;;;;;;;11.13;5.40;;;15.50;15.80;;;;;;5027757;28;20963;-63
2023/06/03 00:20:55;;;;;;;10.23;5.80;;;15.40;16.00;;;;;;5027141;28;20506;-62
2023/06/03 00:23:23;;;;;;;9.60;5.57;;;15.40;16.00;;;;;;5027701;28;20471;-62
2023/06/03 00:25:50;;;;;;;15.13;6.10;;;15.40;15.90;;;;;;5025408;28;20487;-62
2023/06/03 00:28:17;;;;;;;13.00;6.17;;;15.30;16.20;;;;;;5027154;28;20467;-62
2023/06/03 00:30:43;;;;;;;11.43;6.13;;;15.30;16.20;;;;;;5026254;28;20506;-63
2023/06/03 00:33:10;;;;;;;13.00;5.97;;;15.30;16.30;;;;;;5024763;28;20478;-62
2023/06/03 00:35:37;;;;;;;11.93;6.90;;;15.20;16.50;;;;;;5027072;28;20469;-63
2023/06/03 00:38:04;;;;;;;14.37;7.40;;;15.20;16.40;;;;;;5025091;28;20470;-62
2023/06/03 00:40:32;;;;;;;17.93;7.50;;;15.20;16.20;;;;;;5021998;28;20490;-62
2023/06/03 00:42:59;;;;;;;11.43;7.07;;;15.20;16.50;;;;;;5027781;28;20467;-62
2023/06/03 00:45:26;;;;;;;16.70;7.50;;;15.10;16.90;;;;;;5032790;28;20999;-62
2023/06/03 00:47:53;;;;;;;11.83;6.70;;;15.10;17.10;;;;;;5025223;28;20569;-62
2023/06/03 00:50:19;;;;;;;13.10;6.87;;;15.00;17.20;;;;;;5030219;28;20471;-62
2023/06/03 00:52:47;;;;;;;16.03;6.93;;;15.00;17.20;;;;;;5027015;28;20466;-62
2023/06/03 00:55:14;;;;;;;13.60;6.93;;;15.00;17.30;;;;;;5027031;28;20982;-62
2023/06/03 00:57:42;;;;;;;18.90;7.40;;;14.90;17.40;;;;;;5025356;28;20482;-62
2023/06/03 01:00:10;;;;;;;16.63;7.50;;;14.90;17.50;;;;;;5026455;28;20504;-62
2023/06/03 01:02:38;;;;;;;13.90;7.50;;;14.90;17.70;;;;;;5023146;28;20475;-62
2023/06/03 01:05:06;;;;;;;13.47;7.30;;;14.80;17.80;;;;;;5026612;28;21342;-62
2023/06/03 01:07:43;;;;;;;16.73;6.70;;;14.80;17.70;;;;;;5025364;28;20479;-62
2023/06/03 01:10:20;;;;;;;11.40;6.00;;;14.80;17.80;;;;;;5027326;28;20867;-62
2023/06/03 01:12:54;;;;;;;17.80;7.20;;;14.80;18.00;;;;;;5027471;28;20471;-62
2023/06/03 01:15:23;;;;;;;10.30;6.80;;;14.70;18.10;;;;;;5026549;28;20462;-62
2023/06/03 01:17:52;;;;;;;14.40;7.23;;;14.70;18.20;;;;;;5026973;28;20485;-62
2023/06/03 01:20:26;;;;;;;12.30;6.30;;;14.70;18.10;;;;;;5026992;28;20473;-62
2023/06/03 01:22:56;;;;;;;12.97;6.70;;;14.70;18.20;;;;;;5022518;28;20458;-62
2023/06/03 01:25:26;;;;;;;10.70;6.10;;;14.70;18.20;;;;;;5025241;28;20463;-62
2023/06/03 01:27:57;;;;;;;10.70;6.67;;;14.60;18.30;;;;;;5022077;28;20483;-62
2023/06/03 01:30:24;;;;;;;10.00;6.30;;;14.60;18.30;;;;;;5026154;28;20470;-62
2023/06/03 01:32:52;;;;;;;16.30;6.53;;;14.60;18.40;;;;;;5027401;28;20470;-63
2023/06/03 01:35:19;;;;;;;15.60;7.37;;;14.50;18.50;;;;;;5022208;28;20913;-62
2023/06/03 01:37:46;;;;;;;11.20;5.90;;;14.50;18.20;;;;;;5025807;28;20494;-62
2023/06/03 01:40:14;;;;;;;13.97;6.73;;;14.50;18.40;;;;;;5025747;28;20635;-62
2023/06/03 01:42:42;;;;;;;15.20;7.77;;;14.40;18.40;;;;;;5026823;28;20470;-62
2023/06/03 01:45:10;;;;;;;14.37;6.97;;;14.40;18.50;;;;;;5026877;28;20462;-62
2023/06/03 01:47:36;;;;;;;15.50;6.10;;;14.40;18.70;;;;;;5021605;28;20475;-62
2023/06/03 01:50:03;;;;;;;16.20;6.83;;;14.40;18.50;;;;;;5020728;28;20467;-62
2023/06/03 01:52:30;;;;;;;12.00;6.70;;;14.30;18.50;;;;;;5021974;28;21167;-62
2023/06/03 01:54:57;;;;;;;11.43;6.47;;;14.30;18.50;;;;;;5026014;28;20463;-62
2023/06/03 01:57:24;;;;;;;13.93;7.30;;;14.30;18.60;;;;;;5023271;28;21855;-62
2023/06/03 01:59:52;;;;;;;16.10;8.30;;;14.30;18.70;;;;;;5025278;28;20550;-62
2023/06/03 02:02:19;;;;;;;14.77;7.47;;;14.20;18.80;;;;;;5024143;28;20498;-62
2023/06/03 02:04:46;;;;;;;11.50;6.80;;;14.20;18.90;;;;;;5025198;28;20482;-63
2023/06/03 02:07:14;;;;;;;15.30;6.83;;;14.20;19.00;;;;;;5024748;28;20916;-64
2023/06/03 02:09:41;;;;;;;13.10;6.37;;;14.20;19.10;;;;;;5026588;28;20506;-63
2023/06/03 02:12:08;;;;;;;14.00;6.80;;;14.20;18.90;;;;;;5025753;28;20462;-63
2023/06/03 02:14:37;;;;;;;12.93;6.10;;;14.10;19.00;;;;;;5024920;28;20474;-63
2023/06/03 02:17:06;;;;;;;13.13;7.30;;;14.10;19.30;;;;;;5025924;28;20971;-63
2023/06/03 02:19:32;;;;;;;12.70;7.37;;;14.10;19.50;;;;;;5024148;28;20575;-63
2023/06/03 02:21:59;;;;;;;12.00;7.13;;;14.00;19.40;;;;;;5024158;28;20963;-63
2023/06/03 02:24:28;;;;;;;13.20;6.47;;;14.00;19.60;;;;;;5025424;28;20471;-63
2023/06/03 02:27:00;;;;;;;13.87;6.50;;;14.00;19.60;;;;;;5025542;28;20991;-63
2023/06/03 02:29:27;;;;;;;13.10;8.17;;;14.00;19.50;;;;;;5025228;28;20541;-63
2023/06/03 02:31:55;;;;;;;16.73;7.50;;;13.90;19.70;;;;;;5024560;28;21153;-63
2023/06/03 02:34:23;;;;;;;14.63;6.83;;;13.90;19.70;;;;;;5024239;28;20462;-63
2023/06/03 02:36:50;;;;;;;14.50;6.23;;;13.80;19.60;;;;;;5029616;28;20486;-63
2023/06/03 02:39:17;;;;;;;15.90;7.97;;;13.80;19.70;;;;;;5029433;28;21007;-63
2023/06/03 02:41:46;;;;;;;10.73;6.10;;;13.80;19.80;;;;;;5029684;28;20469;-63
2023/06/03 02:44:13;;;;;;;14.73;7.30;;;13.80;19.90;;;;;;5028329;28;20584;-63
2023/06/03 02:46:40;;;;;;;16.10;6.83;;;13.70;20.00;;;;;;5029116;28;20474;-63
2023/06/03 02:49:08;;;;;;;17.77;7.40;;;13.70;20.00;;;;;;5033631;28;21264;-63
2023/06/03 02:51:37;;;;;;;22.10;6.70;;;13.60;19.90;;;;;;5029157;28;20541;-63
2023/06/03 02:54:04;;;;;;;12.10;7.00;;;13.60;20.00;;;;;;5035031;28;20502;-63
2023/06/03 02:56:31;;;;;;;11.90;7.13;;;13.60;20.00;;;;;;5027048;28;20484;-64
2023/06/03 02:58:57;;;;;;;11.87;6.63;;;13.60;19.90;;;;;;5032369;28;20475;-63
2023/06/03 03:01:25;;;;;;;13.43;7.10;;;13.60;20.10;;;;;;5028685;28;20471;-63
2023/06/03 03:03:51;;;;;;;12.53;6.00;;;13.60;20.00;;;;;;5030003;28;21086;-63
2023/06/03 03:06:19;;;;;;;14.73;6.60;;;13.50;20.00;;;;;;5027238;28;20498;-63
2023/06/03 03:08:48;;;;;;;12.03;6.20;;;13.50;20.30;;;;;;5068315;23;20543;-64
2023/06/03 03:11:15;;;;;;;13.50;7.00;;;13.50;20.40;;;;;;5044730;28;20461;-64
2023/06/03 03:13:42;;;;;;;11.47;6.40;;;13.50;20.70;;;;;;5047990;28;20498;-64
2023/06/03 03:16:08;;;;;;;13.33;6.50;;;13.40;20.20;;;;;;5047817;28;20493;-64
2023/06/03 03:18:36;;;;;;;12.83;6.93;;;13.40;20.70;;;;;;5038476;28;20482;-64
2023/06/03 03:21:03;;;;;;;11.83;6.43;;;13.40;20.40;;;;;;5045790;28;20950;-64
2023/06/03 03:23:30;;;;;;;15.57;6.50;;;13.40;20.80;;;;;;5043411;28;20943;-64
2023/06/03 03:26:00;;;;;;;12.47;5.93;;;13.30;20.60;;;;;;5049457;28;20834;-64
2023/06/03 03:28:27;;;;;;;13.20;6.80;;;13.40;20.40;;;;;;5043365;28;20490;-64
2023/06/03 03:30:55;;;;;;;11.43;5.73;;;13.30;20.80;;;;;;5044174;28;20473;-64
2023/06/03 03:33:22;;;;;;;15.30;7.73;;;13.30;20.70;;;;;;5046455;28;20493;-64
2023/06/03 03:35:49;;;;;;;14.97;7.63;;;13.30;21.10;;;;;;5048515;28;20969;-64
2023/06/03 03:38:16;;;;;;;15.77;7.97;;;13.30;20.90;;;;;;5041358;28;20479;-64
2023/06/03 03:40:43;;;;;;;13.13;7.47;;;13.30;20.60;;;;;;5044488;28;21165;-64
2023/06/03 03:43:15;;;;;;;14.33;7.73;;;13.30;20.80;;;;;;5046755;28;20459;-64
2023/06/03 03:45:42;;;;;;;13.10;7.47;;;13.30;20.70;;;;;;5046568;28;20543;-64
2023/06/03 03:48:14;;;;;;;18.90;7.63;;;13.30;20.90;;;;;;5046728;28;20461;-64
2023/06/03 03:50:45;;;;;;;11.73;7.40;;;13.30;20.70;;;;;;5043753;28;20470;-64
2023/06/03 03:53:13;;;;;;;12.97;6.70;;;13.30;21.00;;;;;;5048012;28;21010;-64
2023/06/03 03:55:41;;;;;;;16.67;8.00;;;13.30;20.90;;;;;;5045278;28;20461;-64
2023/06/03 03:58:23;;;;;;;14.67;7.07;;;13.30;21.40;;;;;;5046039;28;20489;-64
2023/06/03 04:00:51;;;;;;;12.67;6.87;;;13.30;20.80;;;;;;5039745;28;20454;-64
2023/06/03 04:03:19;;;;;;;12.50;5.63;;;13.40;20.50;;;;;;5042253;28;20473;-64
2023/06/03 04:05:47;;;;;;;12.40;6.77;;;13.40;20.40;;;;;;5045966;28;20632;-64
2023/06/03 04:08:29;;;;;;;10.30;5.70;;;13.40;20.30;;;;;;5048050;28;20524;-64
2023/06/03 04:10:58;;;;;;;12.30;6.10;;;13.40;20.30;;;;;;5041349;28;20469;-64
2023/06/03 04:13:26;;;;;;;16.73;7.00;;;13.50;20.30;;;;;;5041574;28;20463;-64
2023/06/03 04:15:53;;;;;;;15.70;7.63;;;13.50;20.20;;;;;;5042771;28;20481;-64
2023/06/03 04:18:21;;;;;;;14.00;7.23;;;13.50;20.30;;;;;;5046582;28;20486;-64
2023/06/03 04:20:48;;;;;;;17.77;7.43;;;13.50;20.50;;;;;;5048469;28;20466;-64
2023/06/03 04:23:16;;;;;;;11.90;6.30;;;13.60;20.30;;;;;;5044546;28;20472;-64
2023/06/03 04:25:43;;;;;;;13.13;5.67;;;13.70;20.10;;;;;;5043765;28;20466;-64
2023/06/03 04:28:10;;;;;;;10.73;5.50;;;14.00;20.10;;;;;;5044890;28;20454;-64
2023/06/03 04:30:39;;;;;;;11.23;5.10;;;15.00;18.80;;;;;;5045210;28;20505;-64
2023/06/03 04:33:06;;;;;;;10.73;5.13;;;16.30;16.10;;;;;;5041939;28;20458;-62
2023/06/03 04:35:33;;;;;;;7.60;5.27;;;17.50;13.40;;;;;;5038777;28;20493;-64
2023/06/03 04:38:00;;;;;;;14.67;6.20;;;18.60;10.70;;;;;;5037861;28;20479;-64
2023/06/03 04:40:27;;;;;;;14.37;6.07;;;19.60;8.90;;;;;;5042165;28;20465;-62
2023/06/03 04:42:54;;;;;;;12.10;6.23;;;20.50;7.00;;;;;;5046658;28;20516;-62
2023/06/03 04:45:23;;;;;;;10.53;6.70;;;21.20;5.20;;;;;;5044967;28;20461;-62
2023/06/03 04:47:52;;;;;;;17.43;7.50;;;21.30;4.20;;;;;;5046952;28;21278;-62
2023/06/03 04:50:20;;;;;;;13.43;5.73;;;20.50;5.20;;;;;;5045896;28;20489;-62
2023/06/03 04:52:48;;;;;;;12.20;6.00;;;19.70;6.90;;;;;;5044926;28;21043;-62
2023/06/03 04:55:14;;;;;;;16.13;7.17;;;19.90;7.60;;;;;;5034774;28;20463;-64
2023/06/03 04:57:47;;;;;;;12.53;5.27;;;21.20;5.70;;;;;;5046986;28;20858;-64
2023/06/03 05:00:18;;;;;;;14.83;5.80;;;22.60;3.40;;;;;;5046814;28;20510;-62
2023/06/03 05:02:54;;;;;;;9.33;5.30;;;23.90;1.30;;;;;;5041627;28;20462;-64
2023/06/03 05:05:23;;;;;;;11.50;5.27;;;25.10;1.00;;;;;;5042191;28;20462;-64
2023/06/03 05:07:50;;;;;;;16.03;6.63;;;26.00;1.00;;;;;;5043124;28;20485;-64
2023/06/03 05:10:17;;;;;;;9.87;4.30;;;26.80;1.00;;;;;;5044904;28;20462;-64
2023/06/03 05:12:45;;;;;;;9.97;4.67;;;27.50;1.00;;;;;;5042719;28;20548;-64
2023/06/03 05:15:12;;;;;;;9.20;4.30;;;28.20;1.00;;;;;;5041544;28;20462;-64
2023/06/03 05:17:39;;;;;;;7.37;4.20;;;28.90;1.00;;;;;;5038047;28;20823;-62
2023/06/03 05:20:07;;;;;;;8.60;4.93;;;29.50;1.00;;;;;;5041727;28;20501;-63
2023/06/03 05:22:35;;;;;;;9.13;4.13;;;30.10;1.00;;;;;;5044067;28;20465;-63
2023/06/03 05:25:02;;;;;;;8.93;3.80;;;30.70;1.00;;;;;;5042013;28;20473;-63
2023/06/03 05:27:29;;;;;;;11.20;5.17;;;31.40;1.00;;;;;;5042904;28;20478;-63
2023/06/03 05:29:56;;;;;;;13.33;4.53;;;32.00;1.00;;;;;;5043454;28;20557;-63
2023/06/03 05:32:22;;;;;;;12.20;5.03;;;32.60;1.00;;;;;;5040999;28;20478;-63
2023/06/03 05:34:49;;;;;;;20.03;6.07;;;33.20;1.00;;;;;;5038976;28;20458;-63
2023/06/03 05:37:16;;;;;;;13.80;4.93;;;33.70;1.00;;;;;;5038642;28;20517;-63
2023/06/03 05:39:44;;;;;;;14.23;5.77;;;34.20;1.00;;;;;;5039014;28;20476;-63
2023/06/03 05:42:10;;;;;;;11.00;5.00;;;34.70;1.00;;;;;;5045240;28;20477;-63
2023/06/03 05:44:37;;;;;;;10.87;4.83;;;35.00;1.00;;;;;;5041254;28;20472;-63
2023/06/03 05:47:04;;;;;;;11.40;4.63;;;35.50;1.00;;;;;;5048891;28;20512;-63
2023/06/03 05:49:31;;;;;;;10.97;4.40;;;36.10;1.00;;;;;;5038894;28;20473;-63
2023/06/03 05:51:58;;;;;;;10.90;4.87;;;36.60;1.00;;;;;;5041820;28;21022;-63
2023/06/03 05:54:28;;;;;;;9.17;4.60;;;36.80;1.00;;;;;;5045543;28;20488;-63
2023/06/03 05:56:56;;;;;;;12.63;4.93;;;37.20;1.00;;;;;;5043955;28;20486;-63
2023/06/03 05:59:23;;;;;;;12.90;4.20;;;37.70;1.00;;;;;;5045964;28;20482;-63
2023/06/03 06:01:50;;;;;;;9.13;4.00;;;38.30;1.00;;;;;;5045651;28;20489;-63
2023/06/03 06:04:17;;;;;;;7.40;3.30;;;38.50;1.00;;;;;;5046696;28;20466;-63
2023/06/03 06:06:43;;;;;;;10.23;4.03;;;38.50;1.00;;;;;;5044431;28;22109;-63
2023/06/03 06:09:10;;;;;;;9.93;4.27;;;38.50;1.00;;;;;;5042193;28;20458;-63
2023/06/03 06:11:37;;;;;;;7.33;4.00;;;38.60;1.00;;;;;;5040723;28;20469;-64
2023/06/03 06:14:05;;;;;;;12.00;4.03;;;39.10;1.00;;;;;;5042940;28;20484;-62
2023/06/03 06:16:32;;;;;;;10.07;4.03;;;39.80;1.00;;;;;;5043136;28;21026;-62
2023/06/03 06:18:58;;;;;;;10.50;3.97;;;40.40;1.00;;;;;;5044536;28;20486;-63
2023/06/03 06:21:25;;;;;;;10.90;4.67;;;41.00;1.00;;;;;;5042863;28;20493;-63
2023/06/03 06:23:52;;;;;;;9.30;3.97;;;41.60;1.00;;;;;;5044127;28;20467;-64
2023/06/03 06:26:20;;;;;;;7.40;4.67;;;42.00;1.00;;;;;;5046799;28;20486;-63
2023/06/03 06:28:47;;;;;;;8.00;4.27;;;42.50;1.00;;;;;;5045017;28;20458;-65
2023/06/03 06:31:16;;;;;;;7.03;3.87;;;42.50;1.00;;;;;;5045031;28;20483;-63
2023/06/03 06:33:47;;;;;;;12.13;4.00;;;42.70;1.00;;;;;;5045555;28;20466;-63
2023/06/03 06:36:28;;;;;;;8.47;3.83;;;43.00;1.00;;;;;;5056041;28;20600;-64
2023/06/03 06:38:55;;;;;;;10.10;4.13;;;43.40;1.00;;;;;;5051441;28;20489;-63
2023/06/03 06:41:22;;;;;;;6.70;3.73;;;43.40;1.00;;;;;;5039460;28;20467;-64
2023/06/03 06:43:48;;;;;;;8.53;4.83;;;43.70;1.00;;;;;;5041395;28;20469;-63
2023/06/03 06:46:16;;;;;;;8.67;4.43;;;43.60;1.00;;;;;;5041586;28;20901;-64
2023/06/03 06:48:43;;;;;;;7.43;3.93;;;43.50;1.00;;;;;;5042665;28;20469;-64
2023/06/03 06:51:10;;;;;;;8.23;4.30;;;43.50;1.00;;;;;;5043234;28;20457;-64
2023/06/03 06:53:38;;;;;;;9.90;4.50;;;44.00;1.00;;;;;;5035583;28;20463;-64
2023/06/03 06:56:07;;;;;;;7.73;4.20;;;44.50;1.00;;;;;;5042773;28;20481;-64
2023/06/03 06:58:36;;;;;;;9.47;4.47;;;44.80;1.00;;;;;;5045265;28;20482;-64
2023/06/03 07:01:05;;;;;;;11.97;5.40;;;44.80;1.00;;;;;;5039144;28;20508;-64
2023/06/03 07:03:34;;;;;;;7.53;3.83;;;44.80;1.00;;;;;;5041340;28;20524;-64
2023/06/03 07:06:01;;;;;;;8.57;4.07;;;45.00;1.00;;;;;;5044206;28;20478;-64
2023/06/03 07:08:28;;;;;;;7.93;4.30;;;45.60;1.00;;;;;;5042406;28;21031;-63
2023/06/03 07:10:58;;;;;;;7.37;4.20;;;45.70;1.00;;;;;;5040849;28;20469;-64
2023/06/03 07:13:26;;;;;;;6.67;3.80;;;46.20;1.00;;;;;;5045285;28;20473;-64
2023/06/03 07:15:53;;;;;;;10.97;4.60;;;46.80;1.00;;;;;;5041740;28;21019;-64
2023/06/03 07:18:21;;;;;;;8.37;4.60;;;47.40;1.00;;;;;;5044586;28;20482;-64
2023/06/03 07:20:50;;;;;;;7.33;3.97;;;47.90;1.00;;;;;;5040951;28;20457;-64
2023/06/03 07:23:21;;;;;;;7.37;4.47;;;48.20;1.00;;;;;;5040989;28;20465;-64
2023/06/03 07:25:49;;;;;;;8.20;4.60;;;48.40;1.00;;;;;;5046405;28;20466;-64
2023/06/03 07:28:16;;;;;;;10.47;4.17;;;48.60;1.00;;;;;;5045268;28;20468;-64
2023/06/03 07:30:45;;;;;;;10.03;4.40;;;48.90;1.00;;;;;;5046005;28;21682;-64
2023/06/03 07:33:24;;;;;;;10.30;5.13;;;49.30;1.00;;;;;;5046088;28;20469;-64
2023/06/03 07:35:54;;;;;;;9.73;4.90;;;49.30;1.00;;;;;;5045395;28;20494;-65
2023/06/03 07:38:47;;;;;;;7.57;4.07;;;49.20;1.00;;;;;;5043790;28;20514;-65
2023/06/03 07:41:25;;;;;;;8.30;4.73;;;49.60;1.00;;;;;;5026216;28;20458;-64
2023/06/03 07:43:52;;;;;;;8.23;4.00;;;50.10;1.00;;;;;;5043665;28;20549;-64
2023/06/03 07:46:31;;;;;;;8.43;4.27;;;50.00;1.00;;;;;;5048503;28;20481;-65
2023/06/03 07:48:58;;;;;;;11.17;4.47;;;50.50;1.00;;;;;;5045601;28;20464;-64
2023/06/03 07:51:26;;;;;;;7.87;4.77;;;50.90;1.00;;;;;;5045154;28;20465;-64
2023/06/03 07:53:56;;;;;;;7.93;4.20;;;51.40;1.00;;;;;;5044099;28;20472;-64
2023/06/03 07:56:22;;;;;;;7.70;4.03;;;50.90;1.00;;;;;;5043851;28;20954;-64
2023/06/03 07:58:49;;;;;;;6.30;3.83;;;51.00;1.00;;;;;;5046871;28;20468;-64
2023/06/03 08:01:17;;;;;;;8.30;4.40;;;51.30;1.00;;;;;;5042299;28;20477;-64
2023/06/03 08:03:43;;;;;;;8.77;4.67;;;51.70;1.00;;;;;;5040908;28;21689;-66
2023/06/03 08:06:10;;;;;;;9.63;4.23;;;51.50;1.00;;;;;;5045233;28;20485;-65
2023/06/03 08:08:39;;;;;;;8.70;4.27;;;51.60;1.00;;;;;;5046866;28;20496;-66
2023/06/03 08:11:06;;;;;;;11.20;4.93;;;52.00;1.00;;;;;;5048188;28;20762;-64
2023/06/03 08:13:34;;;;;;;8.43;4.87;;;52.30;1.00;;;;;;5049425;28;20548;-64
2023/06/03 08:16:00;;;;;;;10.47;4.53;;;52.30;1.00;;;;;;5047555;28;20488;-63
2023/06/03 08:18:38;;;;;;;8.17;4.60;;;52.00;1.00;;;;;;5045695;28;20482;-64
2023/06/03 08:21:05;;;;;;;7.13;4.20;;;52.50;1.00;;;;;;5043643;28;20472;-64
2023/06/03 08:23:32;;;;;;;8.07;5.97;;;52.90;1.00;;;;;;5042226;28;20465;-64
2023/06/03 08:26:01;;;;;;;6.93;4.27;;;52.60;1.00;;;;;;5043205;28;20477;-64
2023/06/03 08:28:27;;;;;;;7.27;5.00;;;52.10;1.00;;;;;;5043631;28;20468;-62
2023/06/03 08:30:55;;;;;;;9.27;4.27;;;52.40;1.00;;;;;;5042363;28;20473;-63
2023/06/03 08:33:22;;;;;;;6.03;4.60;;;52.00;1.00;;;;;;5043054;28;20472;-62
2023/06/03 08:35:49;;;;;;;8.53;5.10;;;51.60;1.00;;;;;;5043267;28;20468;-63
2023/06/03 08:38:16;;;;;;;11.97;4.67;;;51.30;1.00;;;;;;5044716;28;20604;-64
2023/06/03 08:40:48;;;;;;;8.37;4.40;;;51.30;1.00;;;;;;5045214;28;20568;-63
2023/06/03 08:43:17;;;;;;;7.50;5.03;;;51.80;1.00;;;;;;5043500;28;20490;-63
2023/06/03 08:45:54;;;;;;;7.40;4.60;;;52.30;1.00;;;;;;5046197;28;20501;-63
2023/06/03 08:48:30;;;;;;;7.83;4.53;;;52.90;1.00;;;;;;5046383;28;20518;-63
2023/06/03 08:51:04;;;;;;;8.70;5.07;;;53.40;1.00;;;;;;5045841;28;20461;-63
2023/06/03 08:53:36;;;;;;;7.40;4.60;;;53.00;1.00;;;;;;5041645;28;20543;-63
2023/06/03 08:56:03;;;;;;;8.33;4.50;;;52.70;1.00;;;;;;5035276;28;20489;-63
2023/06/03 08:58:36;;;;;;;9.40;4.60;;;52.90;1.00;;;;;;5044459;28;20465;-63
2023/06/03 09:01:04;;;;;;;9.33;4.70;;;53.20;1.00;;;;;;5042792;28;20484;-63
2023/06/03 09:03:32;;;;;;;7.13;4.63;;;53.50;1.00;;;;;;5046634;28;20480;-63
2023/06/03 09:06:01;;;;;;;9.43;4.67;;;53.30;1.00;;;;;;5047251;28;20490;-63
2023/06/03 09:08:29;;;;;;;10.43;5.13;;;53.30;1.00;;;;;;5078015;23;20993;-63
2023/06/03 09:10:57;;;;;;;10.20;6.07;;;53.50;1.00;;;;;;5026482;28;20939;-63
2023/06/03 09:13:28;;;;;;;7.30;4.67;;;53.50;1.00;;;;;;5031202;28;20463;-62
2023/06/03 09:15:57;;;;;;;7.03;4.67;;;53.20;1.00;;;;;;5022176;28;21001;-63
2023/06/03 09:18:26;;;;;;;6.60;4.37;;;53.20;1.00;;;;;;5027114;28;20860;-62
2023/06/03 09:20:53;;;;;;;9.30;4.87;;;53.20;1.00;;;;;;5022668;28;20458;-63
2023/06/03 09:23:20;;;;;;;8.10;5.00;;;53.10;1.00;;;;;;5027283;28;20466;-63
2023/06/03 09:25:47;;;;;;;8.00;5.60;;;52.00;1.00;;;;;;5022763;28;20490;-63
2023/06/03 09:28:14;;;;;;;9.10;5.13;;;49.90;1.00;;;;;;5020183;28;20454;-63
2023/06/03 09:30:41;;;;;;;14.53;6.30;;;47.20;1.00;;;;;;5027753;28;20462;-63
2023/06/03 09:33:10;;;;;;;11.40;6.40;;;45.10;1.00;;;;;;5018526;28;20474;-63
2023/06/03 09:35:36;;;;;;;8.10;5.60;;;43.10;1.00;;;;;;5024271;28;20511;-63
2023/06/03 09:38:05;;;;;;;17.50;5.43;;;41.30;1.00;;;;;;5016396;28;20465;-62
2023/06/03 09:40:33;;;;;;;8.10;5.83;;;39.50;1.00;;;;;;5024319;28;20482;-63
2023/06/03 09:43:00;;;;;;;9.60;5.70;;;38.10;1.00;;;;;;5021415;28;20473;-62
2023/06/03 09:45:29;;;;;;;12.27;5.90;;;36.80;1.00;;;;;;5018426;28;20458;-62
2023/06/03 09:47:57;;;;;;;8.33;4.90;;;35.80;1.00;;;;;;5017461;28;20468;-62
2023/06/03 09:50:26;;;;;;;9.30;6.67;;;35.00;1.00;;;;;;5015785;28;20459;-63
2023/06/03 09:52:53;;;;;;;10.07;6.90;;;34.30;1.00;;;;;;5019122;28;20499;-62
2023/06/03 09:55:28;;;;;;;10.80;5.40;;;33.20;1.00;;;;;;5025672;28;20734;-62
2023/06/03 09:58:03;;;;;;;12.40;7.40;;;32.20;1.00;;;;;;5021776;28;20465;-62
2023/06/03 10:00:32;;;;;;;11.43;6.93;;;31.40;1.00;;;;;;5026280;28;20482;-62
2023/06/03 10:03:07;;;;;;;8.70;6.10;;;30.70;1.00;;;;;;5019059;28;20565;-62
2023/06/03 10:05:36;;;;;;;9.77;6.00;;;30.40;1.00;;;;;;5026156;28;20466;-62
2023/06/03 10:08:03;;;;;;;9.60;5.90;;;30.10;1.00;;;;;;5023889;28;20513;-63
2023/06/03 10:10:31;;;;;;;13.30;7.40;;;29.80;1.00;;;;;;5020385;28;20459;-62
2023/06/03 10:12:58;;;;;;;11.00;7.43;;;29.50;1.00;;;;;;5017785;28;20761;-62
2023/06/03 10:15:38;;;;;;;10.27;6.20;;;29.10;1.00;;;;;;5016259;28;20934;-62
2023/06/03 10:18:06;;;;;;;12.27;7.13;;;28.80;1.00;;;;;;5015839;28;21121;-62
2023/06/03 10:20:35;;;;;;;11.20;6.70;;;28.50;1.00;;;;;;5016900;28;20485;-63
2023/06/03 10:23:04;;;;;;;8.80;6.27;;;28.30;1.00;;;;;;5020009;28;20463;-63
2023/06/03 10:25:33;;;;;;;11.63;6.40;;;28.20;1.00;;;;;;5016465;28;20463;-62
2023/06/03 10:28:00;;;;;;;12.40;6.10;;;28.10;1.00;;;;;;5022684;28;20476;-62
2023/06/03 10:30:28;;;;;;;10.63;6.20;;;28.10;1.00;;;;;;5021008;28;20965;-62
2023/06/03 10:32:58;;;;;;;9.13;5.67;;;28.10;1.00;;;;;;5023005;28;20474;-62
2023/06/03 10:35:25;;;;;;;10.20;6.90;;;28.00;1.00;;;;;;5016734;28;20554;-63
2023/06/03 10:37:54;;;;;;;13.87;7.20;;;27.80;1.00;;;;;;5023157;28;20483;-62
2023/06/03 10:40:22;;;;;;;10.33;6.27;;;27.80;1.00;;;;;;5022854;28;20589;-62
2023/06/03 10:42:50;;;;;;;11.17;6.30;;;27.40;1.00;;;;;;5024852;28;20463;-62
2023/06/03 10:45:16;;;;;;;10.83;6.20;;;27.20;1.00;;;;;;5020213;28;20510;-62
2023/06/03 10:47:45;;;;;;;12.60;6.23;;;27.10;1.00;;;;;;5023051;28;20492;-63
2023/06/03 10:50:20;;;;;;;9.37;5.90;;;27.10;1.00;;;;;;5016418;28;20977;-62
2023/06/03 10:53:08;;;;;;;8.83;6.03;;;27.10;1.00;;;;;;5023640;28;20466;-62
2023/06/03 10:55:42;;;;;;;9.20;6.57;;;27.10;1.00;;;;;;5023282;28;20463;-62
2023/06/03 10:58:14;;;;;;;10.10;6.73;;;27.10;1.00;;;;;;5020540;28;20477;-62
2023/06/03 11:00:53;;;;;;;11.00;6.90;;;27.00;1.00;;;;;;5018594;28;20479;-62
2023/06/03 11:03:21;;;;;;;10.80;6.97;;;27.00;1.00;;;;;;5020526;28;20994;-62
2023/06/03 11:05:48;;;;;;;12.27;6.00;;;27.00;1.00;;;;;;5021652;28;20465;-62
2023/06/03 11:08:54;;;;;;;8.33;6.20;;;27.00;1.00;;;;;;5020155;28;20470;-62
2023/06/03 11:12:03;;;;;;;9.20;7.00;;;27.00;1.00;;;;;;5021783;28;20470;-62
2023/06/03 11:14:55;;;;;;;9.57;6.50;;;26.90;1.00;;;;;;5020523;28;20459;-62
2023/06/03 11:17:25;;;;;;;10.33;6.53;;;26.70;1.00;;;;;;5023985;28;20487;-62
2023/06/03 11:19:55;;;;;;;10.77;6.40;;;26.70;1.00;;;;;;5024799;28;20494;-62
2023/06/03 11:22:42;;;;;;;9.20;5.73;;;26.80;1.00;;;;;;5023898;28;20955;-62
2023/06/03 11:25:26;;;;;;;10.50;6.07;;;27.00;1.00;;;;;;5022724;28;21167;-62
2023/06/03 11:27:53;;;;;;;9.77;6.87;;;26.90;1.00;;;;;;5023021;28;20490;-62
2023/06/03 11:30:20;;;;;;;12.70;7.37;;;26.80;1.00;;;;;;5021818;28;20459;-62
2023/06/03 11:33:10;;;;;;;9.50;6.30;;;26.90;1.00;;;;;;5024614;28;21203;-62
2023/06/03 11:35:37;;;;;;;12.07;6.73;;;26.90;1.00;;;;;;5021029;28;21494;-62
2023/06/03 11:38:04;;;;;;;12.53;6.77;;;26.80;1.00;;;;;;5023205;28;20482;-62
2023/06/03 11:40:44;;;;;;;12.40;6.60;;;26.70;1.00;;;;;;5019793;28;20998;-62
2023/06/03 11:43:11;;;;;;;11.87;6.27;;;26.70;1.00;;;;;;5024123;28;20475;-62
2023/06/03 11:45:38;;;;;;;8.90;5.97;;;26.70;1.00;;;;;;5021152;28;20850;-62
2023/06/03 11:48:07;;;;;;;11.07;6.60;;;26.70;1.00;;;;;;5025544;28;20463;-62
2023/06/03 11:50:45;;;;;;;11.90;6.50;;;26.80;1.00;;;;;;5020117;28;20474;-62
2023/06/03 11:53:27;;;;;;;10.20;6.30;;;26.70;1.00;;;;;;5028134;28;20941;-62
2023/06/03 11:56:02;;;;;;;13.50;6.43;;;26.60;1.00;;;;;;5019911;28;20498;-62
2023/06/03 11:58:28;;;;;;;15.97;7.03;;;26.60;1.00;;;;;;5018721;28;20498;-62
2023/06/03 12:01:07;;;;;;;9.53;6.97;;;26.60;1.00;;;;;;5021493;28;20479;-62
2023/06/03 12:03:36;;;;;;;10.27;6.27;;;26.50;1.00;;;;;;5027615;28;20459;-63
2023/06/03 12:06:03;;;;;;;10.73;6.63;;;26.40;1.00;;;;;;5026606;28;20489;-62
2023/06/03 12:08:43;;;;;;;10.60;6.33;;;26.50;1.00;;;;;;5026054;28;20469;-62
2023/06/03 12:11:11;;;;;;;12.63;6.20;;;26.50;1.00;;;;;;5025403;28;20538;-62
2023/06/03 12:13:40;;;;;;;12.27;6.47;;;26.50;1.00;;;;;;5029513;28;20823;-62
2023/06/03 12:16:06;;;;;;;12.13;6.23;;;26.50;1.00;;;;;;5026189;28;20484;-62
2023/06/03 12:18:34;;;;;;;11.50;7.03;;;26.40;1.00;;;;;;5027561;28;20454;-62
2023/06/03 12:21:19;;;;;;;9.00;6.20;;;26.40;1.00;;;;;;5028867;28;21029;-62
2023/06/03 12:23:46;;;;;;;10.03;6.30;;;26.40;1.00;;;;;;5026656;28;20466;-62
2023/06/03 12:26:14;;;;;;;12.43;6.67;;;26.40;1.00;;;;;;5023810;28;20479;-62
2023/06/03 12:28:41;;;;;;;8.43;6.30;;;26.60;1.00;;;;;;5027372;28;20494;-62
2023/06/03 12:31:14;;;;;;;9.77;6.10;;;26.60;1.00;;;;;;5027475;28;20470;-62
2023/06/03 12:33:41;;;;;;;8.63;6.00;;;26.60;1.00;;;;;;5026328;28;20468;-62
2023/06/03 12:36:09;;;;;;;10.80;6.87;;;26.50;1.00;;;;;;5025104;28;20808;-62
2023/06/03 12:38:54;;;;;;;12.83;5.93;;;26.40;1.00;;;;;;5025923;28;20462;-62
2023/06/03 12:41:22;;;;;;;10.63;6.60;;;26.30;1.00;;;;;;5025867;28;20490;-62
2023/06/03 12:43:58;;;;;;;12.23;6.27;;;26.30;1.00;;;;;;5019498;28;20458;-62
2023/06/03 12:46:24;;;;;;;10.73;7.17;;;26.10;1.00;;;;;;5027204;28;20998;-62
2023/06/03 12:48:52;;;;;;;9.07;6.60;;;26.10;1.00;;;;;;5038492;28;20954;-62
2023/06/03 12:51:23;;;;;;;10.07;6.33;;;26.10;1.00;;;;;;5022949;28;20475;-62
2023/06/03 12:53:50;;;;;;;13.20;6.03;;;26.10;1.00;;;;;;5019904;28;20518;-62
2023/06/03 12:56:17;;;;;;;9.97;6.20;;;26.20;1.00;;;;;;5023814;28;20483;-63